Terminal Aerodrome Forecast
Issued by NWS

Home | Current Version | Previous Version | Text Only | Print | Product List | Glossary On
Versions: 1 2 3 4 5 6 7 8 9 10 11 12 13 14 15 16 17 18 19 20
000
FTUS43 KIND 221100
TAFBMG
TAF
KBMG 221125Z 2212/2312 12007KT P6SM SCT025 OVC060
      TEMPO 2212/2214 BKN025
     FM221400 13009KT P6SM OVC020
     FM221800 13012KT P6SM VCSH OVC025
     FM222200 14013KT 4SM -RA SCT007 OVC015
     FM230200 15014KT 2SM -RA BR SCT004 OVC007
     FM230700 19012G20KT 4SM -RA BR OVC008
      AMD LTD TO CLD VIS AND WIND TIL 221400=

USA.gov is the U.S. government's official web portal to all federal, state and local government web resources and services.